Terminal Aerodrome Forecast
Issued by NWS Buffalo, NY

Home | Current Version | Previous Version | Text Only | Print | Product List | Glossary On
Versions: 1 2 3 4 5 6 7 8 9 10 11 12 13 14 15 16 17 18
000
FTUS41 KBUF 240537
TAFBUF
TAF
KBUF 240537Z 2406/2506 21007KT P6SM SKC
     FM241400 23012KT P6SM FEW250
     FM241700 24014G22KT P6SM SCT200
     FM242000 23014G22KT P6SM BKN110
     FM242300 22010KT P6SM BKN120
     FM250400 19006KT P6SM BKN100=

USA.gov is the U.S. government's official web portal to all federal, state and local government web resources and services.